Time;durP1;ratioP1;P1;durP2;ratioP2;P2;SDS_P1;SDS_P2;PMS_P1;PMS_P2;Temp;Humidity;BMP_temperature;BMP_pressure;BME280_temperature;BME280_humidity;BME280_pressure;Samples;Min_cycle;Max_cycle;Signal;HPM_P1;HPM_P2
2022/06/10 00:02:09;;;;;;;7.07;3.15;;;;;;;18.43;60.27;101458.22;5008346;28;20046;-72
2022/06/10 00:04:35;;;;;;;4.43;2.60;;;;;;;18.51;59.79;101452.38;5005024;28;20050;-72
2022/06/10 00:07:02;;;;;;;5.78;2.80;;;;;;;18.69;59.05;101455.47;5003302;28;20480;-72
2022/06/10 00:09:28;;;;;;;3.60;2.50;;;;;;;18.48;60.00;101472.00;5003866;28;20537;-72
2022/06/10 00:11:55;;;;;;;5.68;2.58;;;;;;;18.54;59.74;101477.84;4984304;28;20502;-72
2022/06/10 00:14:21;;;;;;;5.18;2.80;;;;;;;18.54;59.57;101475.19;5001463;28;20054;-72
2022/06/10 00:16:48;;;;;;;4.45;2.60;;;;;;;18.73;58.72;101480.84;5024624;28;20646;-72
2022/06/10 00:19:16;;;;;;;5.22;3.00;;;;;;;18.60;59.18;101482.72;5024462;28;20111;-72
2022/06/10 00:21:42;;;;;;;7.15;2.92;;;;;;;18.52;59.71;101485.06;5029953;28;20201;-72
2022/06/10 00:24:09;;;;;;;15.07;3.17;;;;;;;18.48;59.77;101493.22;5009195;28;20128;-72
2022/06/10 00:26:35;;;;;;;6.30;2.65;;;;;;;18.39;60.13;101493.91;5003594;28;20391;-72
2022/06/10 00:29:02;;;;;;;5.25;3.10;;;;;;;18.38;60.28;101497.53;5004963;28;20054;-72
2022/06/10 00:31:28;;;;;;;5.72;3.05;;;;;;;18.24;60.83;101500.31;5003511;28;20077;-72
2022/06/10 00:33:55;;;;;;;3.78;2.60;;;;;;;18.15;60.92;101500.97;5003117;28;20490;-72
2022/06/10 00:36:24;;;;;;;4.55;2.80;;;;;;;18.22;60.86;101499.56;5006204;28;20050;-72
2022/06/10 00:38:50;;;;;;;4.55;2.53;;;;;;;18.08;61.33;101505.03;5007879;28;20042;-72
2022/06/10 00:41:17;;;;;;;4.43;2.70;;;;;;;18.07;61.10;101502.50;5003192;28;20077;-72
2022/06/10 00:43:43;;;;;;;5.07;2.72;;;;;;;17.96;61.75;101493.47;5004499;28;20049;-72
2022/06/10 00:46:23;;;;;;;5.93;2.95;;;;;;;17.86;62.19;101510.13;5003488;28;20099;-72
2022/06/10 00:48:54;;;;;;;5.28;2.95;;;;;;;17.84;61.97;101514.72;5003161;28;20733;-72
2022/06/10 00:51:24;;;;;;;6.40;2.90;;;;;;;17.91;61.69;101518.63;5009916;28;20050;-72
2022/06/10 00:53:58;;;;;;;3.92;2.78;;;;;;;17.81;62.29;101517.59;4997104;28;20127;-72
2022/06/10 00:56:27;;;;;;;4.60;3.22;;;;;;;17.82;61.71;101511.31;5003271;28;20119;-72
2022/06/10 00:58:58;;;;;;;5.22;3.10;;;;;;;17.85;61.59;101517.25;5004781;28;20053;-72
2022/06/10 01:01:27;;;;;;;5.15;2.45;;;;;;;17.64;62.71;101510.78;5004224;28;20045;-72
2022/06/10 01:03:54;;;;;;;8.40;3.00;;;;;;;17.48;63.09;101521.56;5021043;28;20045;-72
2022/06/10 01:06:21;;;;;;;6.85;3.00;;;;;;;17.40;63.27;101515.94;5021911;28;20053;-72
2022/06/10 01:08:49;;;;;;;8.73;2.75;;;;;;;17.29;62.09;101520.28;5023345;28;20042;-72
2022/06/10 01:11:43;;;;;;;4.20;2.92;;;;;;;17.13;62.88;101517.78;5021387;28;20069;-72
2022/06/10 01:14:22;;;;;;;4.35;3.05;;;;;;;17.04;63.41;101524.53;5036940;28;20052;-72
2022/06/10 01:16:58;;;;;;;7.78;3.30;;;;;;;16.84;64.13;101525.00;5042879;28;20130;-72
2022/06/10 01:19:47;;;;;;;5.50;2.78;;;;;;;16.89;64.79;101532.63;5024490;28;20041;-72
2022/06/10 01:22:37;;;;;;;8.32;3.30;;;;;;;16.90;64.43;101524.59;5018111;28;20107;-72
2022/06/10 01:25:28;;;;;;;8.82;3.58;;;;;;;16.87;64.74;101527.47;5022293;28;20055;-72
2022/06/10 01:28:04;;;;;;;5.75;3.13;;;;;;;16.71;65.53;101528.53;5013356;28;20045;-72
2022/06/10 01:31:07;;;;;;;6.68;3.25;;;;;;;16.67;65.24;101527.88;5015915;28;20073;-72
2022/06/10 01:34:01;;;;;;;8.85;3.25;;;;;;;16.74;65.03;101525.72;5023201;28;20053;-72
2022/06/10 01:36:35;;;;;;;4.75;3.30;;;;;;;16.74;65.17;101533.66;5023603;28;20045;-72
2022/06/10 01:39:09;;;;;;;7.38;3.50;;;;;;;16.79;65.05;101540.34;5023083;28;20081;-72
2022/06/10 01:41:50;;;;;;;6.05;3.78;;;;;;;16.76;66.01;101543.19;5023530;28;20099;-72
2022/06/10 01:44:23;;;;;;;10.00;3.67;;;;;;;16.74;65.81;101537.13;5024176;28;20449;-73
2022/06/10 01:46:54;;;;;;;9.77;3.47;;;;;;;16.71;66.14;101542.63;5023737;28;20041;-72
2022/06/10 01:49:28;;;;;;;6.28;3.13;;;;;;;16.62;66.47;101539.75;5024225;28;20049;-72
2022/06/10 01:51:59;;;;;;;7.35;3.85;;;;;;;16.63;66.28;101541.44;5025190;28;20477;-72
2022/06/10 01:54:42;;;;;;;11.37;3.90;;;;;;;16.61;66.23;101549.47;5023009;28;20045;-72
2022/06/10 01:57:11;;;;;;;9.02;3.70;;;;;;;16.41;67.21;101548.06;5024059;28;20049;-72
2022/06/10 01:59:45;;;;;;;5.70;3.45;;;;;;;16.65;66.34;101544.84;5020969;28;20049;-72
2022/06/10 02:02:21;;;;;;;11.13;3.40;;;;;;;16.48;66.79;101557.31;5023767;28;20056;-72
2022/06/10 02:04:57;;;;;;;4.75;3.28;;;;;;;16.51;66.69;101558.94;5021624;28;20464;-69
2022/06/10 02:07:28;;;;;;;9.23;3.95;;;;;;;16.58;66.13;101556.75;5020351;28;20520;-69
2022/06/10 02:10:02;;;;;;;7.53;3.33;;;;;;;16.57;66.29;101563.00;5021387;28;20045;-69
2022/06/10 02:12:33;;;;;;;8.57;4.05;;;;;;;16.49;66.66;101561.66;5022908;28;20052;-69
2022/06/10 02:15:02;;;;;;;7.45;3.30;;;;;;;16.58;66.38;101568.22;5025042;28;20541;-69
2022/06/10 02:17:35;;;;;;;7.13;3.42;;;;;;;16.43;67.08;101577.94;5023410;28;20460;-69
2022/06/10 02:20:04;;;;;;;18.23;4.70;;;;;;;16.39;66.99;101575.56;5022633;28;20045;-69
2022/06/10 02:22:37;;;;;;;6.38;3.85;;;;;;;16.35;67.09;101574.91;5023321;28;20103;-69
2022/06/10 02:25:10;;;;;;;9.10;4.10;;;;;;;16.37;67.20;101577.47;5023663;28;20045;-69
2022/06/10 02:27:39;;;;;;;8.52;4.00;;;;;;;16.40;67.01;101578.13;5024759;28;20390;-69
2022/06/10 02:30:09;;;;;;;11.07;4.38;;;;;;;16.27;67.31;101582.47;5023354;28;20094;-69
2022/06/10 02:32:37;;;;;;;8.40;4.22;;;;;;;16.57;67.27;101586.81;5024638;28;20106;-69
2022/06/10 02:35:08;;;;;;;7.03;4.10;;;;;;;16.37;68.04;101586.25;5024532;28;20069;-77
2022/06/10 02:37:40;;;;;;;7.72;4.13;;;;;;;16.37;68.41;101580.94;5037854;28;20110;-78
2022/06/10 02:40:14;;;;;;;11.00;4.68;;;;;;;16.35;68.58;101582.84;5022674;28;20061;-77
2022/06/10 02:42:50;;;;;;;7.22;4.50;;;;;;;16.29;68.45;101585.91;5022398;28;20499;-76
2022/06/10 02:45:26;;;;;;;8.68;4.40;;;;;;;16.59;67.61;101598.19;5023175;28;20049;-76
2022/06/10 02:47:58;;;;;;;10.15;4.45;;;;;;;16.67;67.37;101593.22;5023405;28;20057;-76
2022/06/10 02:50:26;;;;;;;;;;;;;;;16.61;67.50;101602.44;5024061;28;20064;-77
2022/06/10 02:52:53;;;;;;;8.18;4.20;;;;;;;16.43;67.86;101600.91;5016500;28;19925;-77
2022/06/10 02:55:23;;;;;;;8.40;4.00;;;;;;;16.46;67.70;101608.66;5022244;28;20221;-76
2022/06/10 03:03:37;;;;;;;8.52;4.13;;;;;;;16.30;67.75;101605.25;5021234;28;20512;-77
2022/06/10 03:06:11;;;;;;;8.45;3.95;;;;;;;16.22;68.34;101604.88;5023768;28;20045;-76
2022/06/10 03:08:43;;;;;;;8.20;4.80;;;;;;;16.03;68.77;101615.75;5010013;28;20045;-76
2022/06/10 03:11:19;;;;;;;7.13;4.00;;;;;;;15.99;69.22;101619.50;5004745;28;20046;-77
2022/06/10 03:13:59;;;;;;;6.18;4.07;;;;;;;15.75;69.83;101615.66;5005402;28;20105;-77
2022/06/10 03:16:50;;;;;;;10.15;4.30;;;;;;;15.33;71.27;101621.66;5017734;28;20096;-76
2022/06/10 03:19:30;;;;;;;12.00;4.57;;;;;;;15.50;70.94;101630.34;5021818;28;20107;-76
2022/06/10 03:22:08;;;;;;;8.63;4.30;;;;;;;15.27;72.06;101637.84;5022998;28;20076;-77
2022/06/10 03:24:40;;;;;;;8.70;4.38;;;;;;;15.32;72.11;101633.16;5024562;28;20053;-77
2022/06/10 03:27:13;;;;;;;7.82;4.32;;;;;;;15.20;72.37;101634.69;5025150;28;20049;-77
2022/06/10 03:29:47;;;;;;;8.20;4.28;;;;;;;15.05;73.14;101632.91;5028085;28;20049;-77
2022/06/10 03:32:19;;;;;;;7.22;4.30;;;;;;;14.84;73.64;101634.97;5030712;28;20037;-78
2022/06/10 03:34:50;;;;;;;6.53;4.30;;;;;;;14.75;74.69;101647.81;5030100;28;20445;-78
2022/06/10 03:37:19;;;;;;;7.55;4.28;;;;;;;14.75;75.16;101639.88;5029324;28;20173;-77
2022/06/10 03:39:50;;;;;;;8.07;4.45;;;;;;;14.74;75.49;101643.50;5029110;28;20061;-77
2022/06/10 03:42:19;;;;;;;6.70;4.30;;;;;;;14.92;74.68;101655.69;5027109;28;20083;-75
2022/06/10 03:44:48;;;;;;;9.25;4.45;;;;;;;14.68;75.53;101651.72;5026924;28;20053;-77
2022/06/10 03:47:18;;;;;;;9.73;4.40;;;;;;;14.60;76.30;101652.13;5027100;28;20234;-77
2022/06/10 03:49:49;;;;;;;9.30;4.68;;;;;;;14.80;75.67;101665.13;5024317;28;20049;-78
2022/06/10 03:52:21;;;;;;;8.35;4.78;;;;;;;14.86;75.01;101669.19;5026836;28;20053;-76
2022/06/10 03:54:48;;;;;;;8.50;4.80;;;;;;;14.72;76.84;101675.25;5026223;28;20045;-77
2022/06/10 03:57:16;;;;;;;8.77;4.68;;;;;;;14.78;76.31;101679.34;5024339;28;20464;-77
2022/06/10 03:59:43;;;;;;;10.10;4.55;;;;;;;15.06;75.17;101674.25;5024396;28;20046;-76
2022/06/10 04:02:10;;;;;;;10.27;4.82;;;;;;;15.40;73.81;101668.78;5044588;28;20685;-77
2022/06/10 04:04:36;;;;;;;9.18;4.82;;;;;;;15.23;74.59;101673.28;5044644;28;20053;-71
2022/06/10 04:07:03;;;;;;;12.13;5.03;;;;;;;15.69;72.53;101677.72;5043624;28;20037;-71
2022/06/10 04:09:31;;;;;;;8.43;4.38;;;;;;;15.73;72.50;101681.88;5026401;28;20045;-70
2022/06/10 04:11:58;;;;;;;9.32;4.68;;;;;;;14.96;75.71;101686.28;5024091;28;20041;-70
2022/06/10 04:14:25;;;;;;;8.15;4.85;;;;;;;14.75;77.06;101692.69;5025126;28;20052;-70
2022/06/10 04:16:52;;;;;;;9.00;5.43;;;;;;;14.81;77.40;101687.09;5029073;28;20092;-70
2022/06/10 04:19:19;;;;;;;6.97;4.70;;;;;;;14.70;77.78;101695.59;5023677;28;20056;-71
2022/06/10 04:21:45;;;;;;;8.38;4.68;;;;;;;15.03;76.62;101700.84;5024666;28;20563;-71
2022/06/10 04:24:11;;;;;;;12.38;5.38;;;;;;;15.63;74.70;101690.44;5026875;28;20046;-71
2022/06/10 04:26:39;;;;;;;8.43;5.10;;;;;;;16.07;72.49;101691.34;5024485;28;20081;-71
2022/06/10 04:29:06;;;;;;;8.60;5.40;;;;;;;15.70;73.73;101697.94;5027996;28;20127;-71
2022/06/10 04:31:32;;;;;;;7.32;5.90;;;;;;;16.31;71.78;101697.78;5025934;28;20045;-71
2022/06/10 04:33:58;;;;;;;10.77;5.20;;;;;;;16.77;70.04;101700.31;5024067;28;20041;-71
2022/06/10 04:36:25;;;;;;;9.60;5.25;;;;;;;17.32;67.89;101706.47;5026121;28;20069;-71
2022/06/10 04:38:51;;;;;;;7.13;4.80;;;;;;;17.25;68.24;101702.50;5026209;28;20120;-71
2022/06/10 04:41:18;;;;;;;8.70;5.15;;;;;;;16.99;68.81;101703.31;5024315;28;20041;-71
2022/06/10 04:43:45;;;;;;;8.43;4.85;;;;;;;17.13;68.65;101707.75;5025558;28;20049;-70
2022/06/10 04:46:22;;;;;;;12.50;4.95;;;;;;;17.17;68.35;101706.59;5026006;28;20057;-70
2022/06/10 04:48:48;;;;;;;7.35;4.97;;;;;;;17.14;68.41;101710.31;5025128;28;20045;-70
2022/06/10 04:51:15;;;;;;;9.98;5.07;;;;;;;17.35;68.55;101716.88;5025722;28;20092;-70
2022/06/10 04:53:41;;;;;;;14.48;5.00;;;;;;;18.10;66.26;101709.28;5026143;28;20447;-71
2022/06/10 04:56:07;;;;;;;12.27;5.28;;;;;;;17.92;65.93;101717.53;5025502;28;20088;-71
2022/06/10 04:58:34;;;;;;;9.05;4.70;;;;;;;18.37;64.72;101713.56;5024901;28;20053;-71
2022/06/10 05:01:02;;;;;;;6.47;4.35;;;;;;;17.57;67.42;101712.84;5026158;28;20049;-71
2022/06/10 05:03:29;;;;;;;13.52;5.05;;;;;;;18.25;65.24;101714.41;5045688;28;20114;-71
2022/06/10 05:05:55;;;;;;;9.90;4.80;;;;;;;18.41;65.32;101712.38;5045023;28;20099;-71
2022/06/10 05:08:25;;;;;;;7.57;4.35;;;;;;;18.00;67.10;101717.84;5034447;28;20041;-71
2022/06/10 05:10:51;;;;;;;11.38;4.38;;;;;;;18.17;66.61;101724.69;5017515;28;20045;-71
2022/06/10 05:13:20;;;;;;;10.82;4.70;;;;;;;18.72;65.21;101726.22;5034988;28;20049;-71
2022/06/10 05:15:47;;;;;;;8.95;4.20;;;;;;;18.67;64.73;101734.53;5033878;28;20045;-72
2022/06/10 05:18:16;;;;;;;10.27;4.70;;;;;;;18.80;64.65;101735.38;5031092;28;20491;-71
2022/06/10 05:20:44;;;;;;;7.82;4.20;;;;;;;19.09;63.55;101738.63;5031519;28;20476;-71
2022/06/10 05:23:15;;;;;;;11.93;4.70;;;;;;;19.49;63.14;101733.94;5029588;28;20060;-71
2022/06/10 05:25:42;;;;;;;11.88;4.20;;;;;;;19.46;63.31;101733.34;5041631;28;20068;-71
2022/06/10 05:28:10;;;;;;;7.93;4.55;;;;;;;19.23;63.27;101750.91;5028991;28;20049;-71
2022/06/10 05:30:37;;;;;;;9.93;4.18;;;;;;;19.41;62.78;101741.59;5023492;28;20049;-71
2022/06/10 05:33:06;;;;;;;11.40;4.35;;;;;;;19.49;61.49;101754.38;5040265;28;20049;-71
2022/06/10 05:35:34;;;;;;;9.40;4.38;;;;;;;20.16;59.77;101750.22;5028783;28;20103;-71
2022/06/10 05:38:01;;;;;;;8.95;4.40;;;;;;;20.73;59.44;101740.41;5042577;28;20045;-71
2022/06/10 05:40:30;;;;;;;10.43;3.90;;;;;;;20.92;57.36;101747.81;5031590;28;20138;-71
2022/06/10 05:42:57;;;;;;;9.95;3.75;;;;;;;21.16;57.21;101755.75;5044064;28;20073;-71
2022/06/10 05:45:24;;;;;;;7.40;3.95;;;;;;;21.14;56.55;101742.50;5040616;28;20041;-71
2022/06/10 05:47:53;;;;;;;10.07;3.92;;;;;;;21.66;55.19;101755.13;5036259;28;20053;-71
2022/06/10 05:50:27;;;;;;;9.85;3.90;;;;;;;21.86;55.53;101745.50;5033959;28;20072;-71
2022/06/10 05:52:55;;;;;;;11.98;4.25;;;;;;;21.70;54.18;101753.06;5016550;28;20069;-70
2022/06/10 05:55:23;;;;;;;9.18;4.18;;;;;;;22.38;53.72;101754.50;5022538;28;20103;-71
2022/06/10 05:57:51;;;;;;;6.15;3.80;;;;;;;22.49;53.42;101754.41;5026555;28;20146;-71
2022/06/10 06:00:21;;;;;;;9.50;3.70;;;;;;;22.21;53.89;101761.25;5043341;28;20049;-71
2022/06/10 06:02:47;;;;;;;6.60;3.40;;;;;;;22.94;51.00;101750.47;5026902;28;20132;-71
2022/06/10 06:05:14;;;;;;;7.70;3.50;;;;;;;23.10;50.84;101755.31;5040406;28;20045;-71
2022/06/10 06:07:43;;;;;;;8.68;3.30;;;;;;;23.19;51.16;101755.34;5035377;28;20049;-71
2022/06/10 06:10:14;;;;;;;8.82;4.20;;;;;;;23.02;51.48;101757.84;5023568;28;20620;-71
2022/06/10 06:12:40;;;;;;;8.07;3.30;;;;;;;23.21;51.01;101756.06;5023857;28;20045;-71
2022/06/10 06:15:08;;;;;;;7.05;3.55;;;;;;;23.62;50.15;101767.59;5023641;28;20123;-70
2022/06/10 06:17:35;;;;;;;8.55;3.90;;;;;;;23.52;50.26;101766.72;5025939;28;20053;-70
2022/06/10 06:20:01;;;;;;;7.70;3.40;;;;;;;23.21;51.57;101758.72;5020946;28;20099;-71
2022/06/10 06:22:28;;;;;;;7.60;3.55;;;;;;;23.43;51.25;101764.91;5032694;28;20071;-70
2022/06/10 06:24:54;;;;;;;7.78;3.13;;;;;;;22.77;53.86;101759.09;5032153;28;20566;-70
2022/06/10 06:27:22;;;;;;;6.35;3.03;;;;;;;23.45;51.41;101768.25;5034315;28;20554;-70
2022/06/10 06:29:50;;;;;;;8.57;3.35;;;;;;;24.09;48.91;101761.41;5026856;28;20115;-70
2022/06/10 06:32:17;;;;;;;7.80;3.38;;;;;;;24.76;48.27;101755.09;5020903;28;20460;-71
2022/06/10 06:34:44;;;;;;;6.10;3.33;;;;;;;24.11;48.81;101770.16;5022645;28;20073;-70
2022/06/10 06:37:13;;;;;;;10.43;3.60;;;;;;;23.48;50.00;101768.84;5035266;28;20072;-74
2022/06/10 06:39:40;;;;;;;7.28;3.50;;;;;;;22.75;51.07;101769.94;5027850;28;20639;-70
2022/06/10 06:42:07;;;;;;;11.77;4.07;;;;;;;23.81;50.72;101772.13;5037383;28;20544;-70
2022/06/10 06:44:34;;;;;;;8.63;3.85;;;;;;;23.87;50.14;101769.75;5024154;28;20096;-70
2022/06/10 06:47:01;;;;;;;7.38;3.40;;;;;;;23.96;49.60;101776.06;5022176;28;20501;-70
2022/06/10 06:49:29;;;;;;;7.03;3.38;;;;;;;22.43;52.91;101771.81;5046903;28;20064;-71
2022/06/10 06:51:56;;;;;;;9.77;3.25;;;;;;;22.01;54.48;101768.28;5036823;28;20045;-71
2022/06/10 06:54:24;;;;;;;8.07;3.75;;;;;;;23.18;51.63;101767.03;5030324;28;20179;-71
2022/06/10 06:56:50;;;;;;;7.07;3.38;;;;;;;24.18;49.14;101771.31;5040817;28;20044;-71
2022/06/10 06:59:17;;;;;;;6.78;3.67;;;;;;;24.49;47.70;101774.66;5026355;28;20593;-71
2022/06/10 07:01:44;;;;;;;5.55;3.20;;;;;;;25.03;46.08;101755.19;5034883;28;20045;-71
2022/06/10 07:04:11;;;;;;;8.73;3.22;;;;;;;25.76;44.50;101766.78;5025580;28;20131;-71
2022/06/10 07:06:38;;;;;;;6.72;3.13;;;;;;;25.71;44.84;101776.31;5028154;28;20103;-71
2022/06/10 07:09:06;;;;;;;6.78;3.10;;;;;;;25.88;44.55;101773.63;5044076;28;20061;-71
2022/06/10 07:11:32;;;;;;;10.35;3.60;;;;;;;25.98;42.87;101778.91;5045458;28;20102;-72
2022/06/10 07:13:59;;;;;;;9.52;3.17;;;;;;;25.43;44.20;101781.66;5046672;28;20053;-72
2022/06/10 07:16:25;;;;;;;7.65;3.22;;;;;;;26.20;43.68;101785.72;5038352;28;20042;-72
2022/06/10 07:18:54;;;;;;;10.55;3.05;;;;;;;25.61;43.74;101781.72;5025530;28;20099;-71
2022/06/10 07:21:20;;;;;;;10.00;3.15;;;;;;;25.48;43.99;101783.91;5026753;28;20095;-71
2022/06/10 07:23:47;;;;;;;9.15;2.83;;;;;;;24.67;46.51;101791.72;5028048;28;20045;-71
2022/06/10 07:26:13;;;;;;;7.10;2.70;;;;;;;25.45;45.19;101787.75;5045336;28;20093;-71
2022/06/10 07:28:39;;;;;;;8.80;2.92;;;;;;;25.42;42.89;101784.50;5032159;28;20091;-71
2022/06/10 07:31:06;;;;;;;5.88;2.67;;;;;;;25.13;44.48;101790.84;5027341;28;20046;-71
2022/06/10 07:33:34;;;;;;;10.80;3.05;;;;;;;24.33;46.03;101797.69;5041320;28;20114;-71
2022/06/10 07:36:02;;;;;;;6.40;2.63;;;;;;;24.27;45.48;101790.22;5014371;28;20041;-71
2022/06/10 07:38:28;;;;;;;7.90;2.70;;;;;;;24.66;44.41;101787.31;5047547;28;20098;-71
2022/06/10 07:43:40;;;;;;;7.47;2.63;;;;;;;25.25;45.58;101790.66;5027561;28;20072;-71
2022/06/10 07:46:08;;;;;;;8.88;2.92;;;;;;;25.61;45.03;101784.41;5025757;28;20049;-72
2022/06/10 07:48:34;;;;;;;6.18;2.63;;;;;;;26.48;42.54;101784.56;5029366;28;20142;-72
2022/06/10 07:51:02;;;;;;;6.05;2.45;;;;;;;26.55;40.07;101789.16;5028896;28;20045;-71
2022/06/10 07:53:30;;;;;;;5.13;2.55;;;;;;;26.48;38.88;101787.25;5025250;28;20053;-71
2022/06/10 07:55:56;;;;;;;7.35;2.83;;;;;;;25.27;40.16;101778.81;5025858;28;20124;-71
2022/06/10 07:58:24;;;;;;;6.18;2.63;;;;;;;25.34;42.30;101792.47;5026877;28;20042;-71
2022/06/10 08:00:51;;;;;;;9.20;2.83;;;;;;;25.57;40.21;101783.88;5025112;28;20053;-72
2022/06/10 08:03:18;;;;;;;7.18;2.53;;;;;;;24.60;41.88;101782.56;5026599;28;20037;-72
2022/06/10 08:05:44;;;;;;;8.15;2.67;;;;;;;24.64;43.67;101775.91;5027193;28;20464;-71
2022/06/10 08:08:15;;;;;;;5.07;2.20;;;;;;;25.70;41.81;101779.97;5045980;28;20362;-71
2022/06/10 08:10:41;;;;;;;17.85;2.60;;;;;;;26.00;39.82;101776.91;5025535;28;20050;-71
2022/06/10 08:13:08;;;;;;;4.88;2.58;;;;;;;25.33;40.33;101774.66;5026209;28;20046;-71
2022/06/10 08:15:35;;;;;;;6.40;2.10;;;;;;;25.76;40.80;101768.63;5042884;28;20049;-71
2022/06/10 08:18:03;;;;;;;11.40;2.67;;;;;;;26.57;41.57;101762.09;5025631;28;20592;-71
2022/06/10 08:23:17;;;;;;;6.43;2.22;;;;;;;28.32;38.55;101769.28;5026703;28;20567;-71
2022/06/10 08:25:44;;;;;;;7.25;2.42;;;;;;;28.19;35.61;101768.97;5026926;28;20049;-71
2022/06/10 08:28:12;;;;;;;3.78;1.83;;;;;;;28.84;33.75;101768.88;5027894;28;20436;-70
2022/06/10 08:30:38;;;;;;;9.75;2.30;;;;;;;27.65;35.16;101775.75;5026003;28;20111;-70
2022/06/10 08:33:05;;;;;;;8.65;2.58;;;;;;;27.63;33.38;101775.09;5037483;28;20073;-71
2022/06/10 08:35:31;;;;;;;5.20;1.75;;;;;;;28.19;36.83;101778.91;5024926;28;20049;-71
2022/06/10 08:37:58;;;;;;;7.35;2.22;;;;;;;28.28;32.25;101783.25;5026351;28;20061;-70
2022/06/10 08:40:44;;;;;;;3.72;1.95;;;;;;;27.70;34.29;101768.03;5024093;28;20049;-70
2022/06/10 08:43:29;;;;;;;5.88;2.03;;;;;;;27.31;35.57;101775.78;5024675;28;20108;-67
2022/06/10 08:46:05;;;;;;;7.88;2.40;;;;;;;27.19;33.86;101768.19;5024181;28;20041;-68
2022/06/10 08:48:39;;;;;;;7.97;2.13;;;;;;;27.75;34.06;101776.47;5023328;28;20641;-68
2022/06/10 08:51:17;;;;;;;7.32;2.50;;;;;;;27.44;33.24;101773.50;5028532;28;20042;-68
2022/06/10 08:54:20;;;;;;;8.45;2.40;;;;;;;27.99;34.94;101770.25;5025773;28;20042;-68
2022/06/10 08:56:51;;;;;;;6.70;2.28;;;;;;;28.11;33.45;101776.19;4962970;28;20105;-67
2022/06/10 08:59:28;;;;;;;8.00;2.20;;;;;;;28.61;34.74;101773.28;4963428;28;20105;-68
2022/06/10 09:02:05;;;;;;;14.13;2.45;;;;;;;28.89;33.45;101772.75;4999289;28;20049;-67
2022/06/10 09:04:42;;;;;;;44.92;4.28;;;;;;;29.05;33.17;101760.22;5004612;28;20038;-67
2022/06/10 09:07:15;;;;;;;6.43;1.65;;;;;;;28.21;32.23;101772.31;5006904;28;20046;-67
2022/06/10 09:09:43;;;;;;;6.13;2.00;;;;;;;27.61;33.64;101776.25;5008836;28;20084;-67
2022/06/10 09:12:18;;;;;;;10.25;2.78;;;;;;;27.65;32.01;101772.22;5035067;28;20179;-67
2022/06/10 09:14:45;;;;;;;9.10;1.90;;;;;;;28.06;31.93;101774.81;5025474;28;20045;-67
2022/06/10 09:17:17;;;;;;;6.50;1.80;;;;;;;27.55;31.23;101767.00;5025031;28;20092;-67
2022/06/10 09:19:48;;;;;;;;;;;;;;;28.10;31.12;101761.03;5024686;28;20126;-67
2022/06/10 09:22:24;;;;;;;8.97;2.07;;;;;;;28.41;30.85;101765.56;5024239;28;20006;-67
2022/06/10 09:24:59;;;;;;;11.82;2.00;;;;;;;28.37;34.71;101766.06;5003585;28;20506;-68
2022/06/10 09:27:31;;;;;;;8.52;2.45;;;;;;;28.47;32.07;101764.88;5005546;28;20092;-68
2022/06/10 09:30:02;;;;;;;5.90;2.00;;;;;;;28.50;32.38;101767.22;5022683;28;20045;-67
2022/06/10 09:32:42;;;;;;;7.07;2.17;;;;;;;29.14;30.91;101761.84;5020261;28;20138;-67
2022/06/10 09:35:16;;;;;;;5.40;2.03;;;;;;;28.56;34.38;101768.41;5024242;28;20049;-67
2022/06/10 09:37:50;;;;;;;5.10;2.30;;;;;;;28.76;31.47;101761.63;5025245;28;20050;-67
2022/06/10 09:40:39;;;;;;;6.60;2.53;;;;;;;29.29;32.06;101766.38;5024530;28;20051;-67
2022/06/10 09:43:36;;;;;;;8.45;2.15;;;;;;;29.67;31.59;101761.94;5024013;28;20103;-67
2022/06/10 09:46:17;;;;;;;6.50;2.90;;;;;;;28.63;28.92;101772.13;5025152;28;20049;-67
2022/06/10 09:49:02;;;;;;;5.03;1.77;;;;;;;28.47;30.23;101761.34;5025029;28;20072;-67
2022/06/10 09:51:35;;;;;;;5.00;1.90;;;;;;;28.48;29.91;101763.88;5024638;28;20099;-68
2022/06/10 09:54:23;;;;;;;5.82;1.75;;;;;;;27.77;31.79;101762.81;5026173;28;20695;-67
2022/06/10 09:57:10;;;;;;;13.43;2.20;;;;;;;27.64;32.55;101763.31;5027566;28;20102;-67
2022/06/10 09:59:41;;;;;;;12.98;2.45;;;;;;;28.22;31.07;101756.97;5024062;28;20049;-67
2022/06/10 10:02:27;;;;;;;10.88;2.20;;;;;;;28.97;31.13;101753.81;5026938;28;20044;-67
2022/06/10 10:05:17;;;;;;;7.47;1.88;;;;;;;28.79;29.40;101752.34;5043917;28;20456;-67
2022/06/10 10:07:49;;;;;;;7.38;2.17;;;;;;;29.05;31.81;101754.81;5032407;28;20049;-67
2022/06/10 10:10:25;;;;;;;6.38;2.08;;;;;;;29.21;28.75;101754.72;5025680;28;20119;-67
2022/06/10 10:13:24;;;;;;;9.90;1.92;;;;;;;28.50;28.05;101756.44;5024568;28;20486;-67
2022/06/10 10:15:59;;;;;;;6.20;2.08;;;;;;;27.58;30.90;101753.19;5033221;28;20041;-67
2022/06/10 10:18:51;;;;;;;6.50;1.92;;;;;;;28.13;31.60;101752.59;5043002;28;20041;-67
2022/06/10 10:21:22;;;;;;;5.50;1.80;;;;;;;28.54;29.50;101751.53;5029167;28;20045;-67
2022/06/10 10:23:51;;;;;;;10.03;1.77;;;;;;;28.44;32.36;101757.13;5022402;28;20045;-67
2022/06/10 10:26:24;;;;;;;7.75;2.60;;;;;;;28.76;29.76;101740.03;5029240;28;20046;-67
2022/06/10 10:28:56;;;;;;;12.52;1.95;;;;;;;28.71;31.54;101739.75;5021556;28;20041;-67
2022/06/10 10:31:26;;;;;;;10.73;1.80;;;;;;;29.88;28.47;101734.25;5024666;28;20107;-67
2022/06/10 10:33:54;;;;;;;12.63;2.25;;;;;;;29.89;28.53;101730.53;5023194;28;20045;-67
2022/06/10 10:36:35;;;;;;;4.13;1.67;;;;;;;30.38;25.82;101725.50;5022357;28;20095;-67
2022/06/10 10:39:15;;;;;;;4.50;1.60;;;;;;;30.48;24.99;101717.19;5027476;28;20140;-67
2022/06/10 10:41:44;;;;;;;4.25;1.63;;;;;;;30.59;25.10;101719.44;5027537;28;20473;-67
2022/06/10 10:44:26;;;;;;;5.13;1.90;;;;;;;30.67;26.13;101727.47;5027150;28;20086;-67
2022/06/10 10:47:03;;;;;;;11.65;2.05;;;;;;;31.06;25.74;101721.75;5029654;28;20785;-67
2022/06/10 10:49:33;;;;;;;5.25;2.00;;;;;;;31.00;24.24;101725.22;5025690;28;20103;-67
2022/06/10 10:52:06;;;;;;;9.10;2.15;;;;;;;31.35;25.84;101727.94;5020295;28;20107;-67
2022/06/10 10:54:36;;;;;;;7.47;1.98;;;;;;;29.21;26.65;101725.00;5027136;28;20676;-67
2022/06/10 10:57:15;;;;;;;5.72;1.70;;;;;;;29.47;26.00;101717.47;5027605;28;20048;-67
2022/06/10 10:59:44;;;;;;;6.38;1.83;;;;;;;29.18;26.74;101728.91;5031581;28;20055;-67
2022/06/10 11:02:34;;;;;;;5.20;1.98;;;;;;;28.68;28.29;101726.56;5046356;28;20544;-67
2022/06/10 11:05:31;;;;;;;9.98;2.10;;;;;;;29.12;29.94;101731.50;5026225;28;20134;-67
2022/06/10 11:08:20;;;;;;;11.55;2.25;;;;;;;29.86;29.92;101718.22;5029651;28;20041;-67
2022/06/10 11:10:56;;;;;;;6.20;1.90;;;;;;;30.11;27.68;101718.03;5025925;28;20049;-67
2022/06/10 11:13:32;;;;;;;5.47;2.15;;;;;;;29.55;24.11;101712.00;5035703;28;20497;-67
2022/06/10 11:16:17;;;;;;;5.60;1.80;;;;;;;29.56;28.05;101711.00;5045677;28;20049;-67
2022/06/10 11:18:47;;;;;;;5.85;1.80;;;;;;;29.45;25.67;101709.53;5046126;28;20067;-67
2022/06/10 11:21:13;;;;;;;3.65;1.58;;;;;;;28.75;25.97;101716.75;5032239;28;20103;-67
2022/06/10 11:23:50;;;;;;;6.68;1.70;;;;;;;29.24;29.27;101719.25;5027802;28;20045;-67
2022/06/10 11:26:20;;;;;;;8.57;2.00;;;;;;;29.55;29.63;101719.28;5028343;28;20046;-67
2022/06/10 11:28:47;;;;;;;7.63;2.22;;;;;;;30.43;27.76;101715.88;5027454;28;20053;-67
2022/06/10 11:31:20;;;;;;;8.18;2.30;;;;;;;30.83;29.14;101711.84;5026701;28;20575;-67
2022/06/10 11:33:52;;;;;;;5.50;1.83;;;;;;;31.02;29.69;101702.34;5027828;28;20559;-67
2022/06/10 11:36:24;;;;;;;;;;;;;;;30.84;25.70;101704.56;5027970;28;20677;-67
2022/06/10 11:38:54;;;;;;;9.43;2.13;;;;;;;31.04;23.92;101707.56;5026985;28;19971;-67
2022/06/10 11:41:27;;;;;;;5.82;2.15;;;;;;;30.70;25.55;101695.44;5039100;28;20124;-67
2022/06/10 11:44:02;;;;;;;6.68;3.53;;;;;;;30.87;24.51;101698.78;5045825;28;20501;-67
2022/06/10 11:46:35;;;;;;;5.82;3.38;;;;;;;30.19;23.97;101690.91;5044962;28;20094;-67
2022/06/10 11:49:12;;;;;;;7.13;2.50;;;;;;;30.43;24.41;101691.50;5044522;28;20068;-67
2022/06/10 11:51:46;;;;;;;9.98;2.13;;;;;;;30.41;26.98;101687.28;5029781;28;20069;-67
2022/06/10 11:54:26;;;;;;;6.60;1.70;;;;;;;29.95;25.85;101695.50;5034098;28;20072;-67
2022/06/10 11:59:52;;;;;;;9.07;2.00;;;;;;;30.75;25.62;101679.44;5044915;28;20056;-67